Weather observations for the past three days for
Caledonia County Airport
Metric (Imperial)
Date Time (edt) Wind (kph) Vis. (km) Weather Sky Cond. Temperature (ºC) Relative Humidity Wind Chill (°C) Heat Index (°C) Pressure Precipitation (cm)
Air Dwpt 6 hour altimeter (cm) sea level (mb) 1 hr 3 hr 6 hr
Max. Min.
10 12:15 SE 17 16.09 Overcast SCT013 BKN018 OVC045 12.1 9.3 83% 75.82 0.0
10 11:55 SE 17 16.09 Overcast BKN015 BKN022 OVC027 12.3 9.3 82% 75.84 0.0
10 11:35 SE 11 11.27 Overcast BKN015 BKN024 OVC041 11.9 9 83% 75.84 0.0
10 11:15 Calm 16.09 Overcast BKN015 BKN028 OVC045 12.6 9.1 79% 75.84 0.0
10 10:55 SE 7 16.09 Overcast BKN015 OVC029 11.1 8.5 84% 75.84 0.0
10 10:35 Calm 16.09 Overcast BKN017 BKN025 OVC031 11.6 8.3 80% 75.84 0.0
10 10:15 Calm 16.09 Overcast BKN014 OVC023 11.1 8.2 82% 75.84 0.0
10 09:55 Calm 16.09 Overcast OVC014 10.6 8 84% 75.84 0.0
10 09:35 Calm 16.09 Overcast BKN012 OVC018 10.5 8.1 85% 75.82 0.0
10 09:15 SE 7 16.09 Overcast OVC010 10 7.9 87% 9 75.84 0.0
10 08:55 Calm 16.09 Overcast OVC010 9.8 7.7 87% 75.84 0.0
10 08:35 Calm 16.09 Overcast OVC008 9.8 7.9 88% 75.82 0.0
10 08:15 Calm 16.09 Overcast OVC008 9.4 7.8 90% 75.82 0.0
10 07:55 SE 6 16.09 Overcast OVC008 9.1 7.7 9.1 7.5 91% 75.84 0.0
10 07:35 Calm 16.09 Overcast OVC006 8.7 7.5 92% 75.79 0.0
10 07:15 Calm 16.09 Overcast OVC006 8.3 7.1 92% 75.79 0.0
10 06:55 Calm 16.09 Overcast OVC006 8.2 7.1 93% 75.77 0.0
10 06:35 Calm 16.09 Overcast OVC008 8.1 7 93% 75.79 0.0
10 06:15 Calm 16.09 Overcast OVC008 7.7 7 95% 75.77 0.0
10 05:55 Calm 16.09 Overcast OVC010 7.6 6.7 94% 75.72 0.0
10 05:35 Calm 16.09 Overcast OVC010 7.5 6.5 93% 75.72 0.0
10 05:15 Calm 11.27 Overcast OVC008 7.6 6.5 93% 75.72 0.0
10 04:55 Calm 11.27 Overcast BKN008 BKN012 OVC029 8 6.3 89% 75.74 0.0
10 04:35 SE 6 16.09 Overcast BKN012 OVC029 8.1 6.3 89% 75.74 0.0
10 04:15 Calm 16.09 Overcast OVC009 8.2 6.3 88% 75.74 0.0
10 03:55 SE 7 16.09 Overcast OVC009 8.1 6.2 88% 7 75.74 0.0
10 03:35 SE 17 16.09 Overcast OVC009 8.1 6.2 88% 6 75.77 0.0
10 03:15 Calm 16.09 Overcast OVC009 7.8 6 89% 75.77 0.0
10 02:55 Calm 16.09 Overcast OVC009 7.7 6 89% 75.74 0.0
10 02:35 Calm 16.09 Overcast OVC009 7.7 5.8 88% 75.74 0.0
10 02:15 SE 11 16.09 Overcast OVC009 7.7 5.8 88% 6 75.77 0.0
10 01:55 Calm 16.09 Overcast OVC009 7.7 5.8 8.2 7.5 88% 75.77 0.0
10 01:35 SE 7 16.09 Overcast OVC009 7.6 5.6 87% 7 75.77 0.0
10 01:15 Calm 16.09 Overcast OVC013 7.5 5.3 86% 75.79 0.0
10 00:55 Calm 16.09 Overcast OVC013 7.5 5.2 86% 75.77 0.0
10 00:35 Calm 16.09 Overcast OVC015 7.5 5.2 86% 75.77 0.0
10 00:15 Calm 16.09 Overcast OVC015 7.5 5.2 86% 75.79 0.0
09 23:55 Calm 16.09 Overcast OVC015 7.5 5.1 85% 75.77 0.0
09 23:35 Calm 16.09 Overcast OVC015 7.6 5.1 84% 75.79 0.0
09 23:15 Calm 16.09 Overcast OVC017 7.7 5 83% 75.79 0.0
09 22:55 Calm 16.09 Overcast OVC017 7.7 5 83% 75.79 0.0
09 22:35 Calm 16.09 Overcast OVC017 7.7 5 83% 75.79 0.0
09 22:15 Calm 16.09 Overcast OVC017 7.7 5 83% 75.79 0.0
09 21:55 Calm 16.09 Overcast OVC019 7.7 4.8 82% 75.79 0.0
09 21:35 Calm 16.09 Overcast OVC019 7.7 4.7 82% 75.84 0.0
09 21:15 Calm 16.09 Overcast OVC021 7.8 4.5 80% 75.84 0.0
09 20:55 Calm 16.09 Overcast OVC021 7.8 4.2 78% 75.82 0.0
09 20:35 Calm 16.09 Overcast OVC021 8 4.2 77% 75.82 0.0
09 20:15 Calm 16.09 Overcast OVC021 8.2 4 75% 75.79 0.0
09 19:55 Calm 16.09 Overcast OVC021 8.2 3.8 10.5 8 74% 75.79 0.0
09 19:35 Calm 16.09 Overcast OVC023 8.5 3.7 72% 75.79 0.0
09 19:15 Calm 16.09 Overcast OVC023 8.6 3.6 71% 75.79 0.0
09 18:55 Calm 16.09 Overcast OVC023 8.7 3.3 69% 75.79 0.0
09 18:35 Calm 16.09 Overcast OVC025 8.7 3.2 69% 75.82 0.0
09 18:15 Calm 16.09 Overcast OVC025 8.7 3.4 70% 75.82 0.0
09 17:55 Calm 16.09 Overcast OVC027 8.7 3.4 70% 75.82 0.0
09 17:35 SE 9 16.09 Overcast OVC027 8.7 3.3 69% 7 75.84 0.0
09 17:15 SE 13 16.09 Overcast OVC027 8.6 3.5 71% 7 75.84 0.0
09 16:55 SE 11 16.09 Overcast OVC025 8.2 3.5 73% 7 75.84 0.0
09 16:35 Calm 16.09 Overcast OVC025 8.2 4.5 78% 75.84 0.0
09 16:15 Calm 11.27 Overcast OVC025 8 4.4 78% 75.87 0.0
09 15:55 SE 13 16.09 Overcast OVC025 8.2 3.6 73% 6 75.87 0.0
09 15:35 SE 15 16.09 Overcast OVC027 8.8 3.2 68% 7 75.87 0.0
09 15:15 SE 13 16.09 Overcast SCT029 BKN050 OVC080 8.9 3.1 67% 7 75.9 0.0
09 14:55 SE 15 16.09 Overcast OVC048 9 3.2 67% 7 75.92 0.0
09 14:35 SE 9 16.09 Overcast SCT035 BKN046 OVC060 9.1 2.9 65% 8 75.92 0.0
09 14:15 SE 20 G 28 16.09 Overcast SCT035 BKN041 OVC070 9.7 1.9 59% 7 75.92 0.0
09 13:55 S 20 G 30 16.09 Overcast SCT048 OVC070 10.9 0.3 13 2.8 48% 75.92 0.0
09 13:35 SE 20 G 33 16.09 Overcast SCT050 BKN070 OVC090 11.6 -1.5 40% 75.92 0.0
09 13:15 S 17 16.09 Mostly Cloudy SCT080 BKN090 12.5 -2.1 36% 75.9 0.0
09 12:55 SE 13 G 26 16.09 Mostly Cloudy BKN080 BKN090 12.5 -2.6 35% 75.92 0.0
09 12:35 S 17 G 28 16.09 Mostly Cloudy BKN090 12.8 -3.2 33% 75.92 0.0
09 12:15 SE 20 G 28 16.09 Partly Cloudy SCT090 12.6 -2.8 34% 75.95 0.0
09 11:55 SE 9 G 30 16.09 Partly Cloudy SCT090 12.6 -3 34% 75.95 0.0
09 11:35 SE 9 16.09 Fair CLR 12.7 -4 31% 75.97 0.0
09 11:15 SE 17 G 26 16.09 Fair CLR 12.6 -3.5 33% 75.97 0.0
09 10:55 Calm 16.09 Fair CLR 11.5 -4.4 33% 75.97 0.0
09 10:35 SE 19 G 30 16.09 Fair CLR 11.4 -3.1 36% 76 0.0
09 10:15 SE 17 16.09 Fair CLR 10.6 -2.2 41% 76.02 0.0
09 09:55 Calm 16.09 Fair CLR 9.4 -1.2 48% 76 0.0
09 09:35 Calm 16.09 Fair CLR 8.6 -0.5 53% 76.02 0.0
09 09:15 SE 7 16.09 Fair CLR 8 -0.4 56% 7 76.02 0.0
09 08:55 Calm 16.09 Fair CLR 6.6 -0.2 62% 76.05 0.0
09 08:35 Calm 16.09 Fair CLR 5.2 -0.9 65% 76.05 0.0
09 08:15 Calm 16.09 Fair CLR 4.5 -0.5 70% 76.05 0.0
09 07:55 Calm 16.09 Fair CLR 2.7 -0.6 2.7 -2.7 79% 76.05 0.0
09 07:35 Calm 16.09 Fair CLR 1.7 -1 82% 76.05 0.0
09 07:15 Calm 16.09 Fair CLR 0.3 -1.5 88% 76.05 0.0
09 06:55 Calm 16.09 Fair CLR -0.5 -2.1 89% 76.02 0.0
09 06:35 Calm 16.09 Fair CLR -1.5 -2.4 94% 76.02 0.0
09 06:15 Calm 16.09 Fair CLR -2.5 -3.2 95% 76.02 0.0
09 05:55 Calm 16.09 Fair CLR -2.5 -3.4 94% 76 0.0
09 05:35 Calm 16.09 Fair CLR -2.6 -3.6 93% 75.97 0.0
09 05:15 Calm 16.09 Fair CLR -1.9 -3.3 90% 75.97 0.0
09 04:55 Calm 16.09 Fair CLR -1.6 -3 90% 75.97 0.0
09 04:35 Calm 16.09 Fair CLR -1.5 -2.8 91% 75.97 0.0
09 04:15 Calm 16.09 Fair CLR -1.2 -2.6 90% 75.97 0.0
09 03:55 Calm 16.09 Fair CLR -1 -2.7 88% 75.97 0.0
09 03:35 Calm 16.09 Fair CLR -1.4 -2.7 91% 75.97 0.0
09 03:15 Calm 16.09 Fair CLR -1.4 -3.2 88% 75.97 0.0
09 02:55 Calm 16.09 Fair CLR -1.2 -3.4 85% 75.97 0.0
09 02:35 Calm 16.09 Fair CLR -0.8 -2.6 88% 75.97 0.0
09 02:15 Calm 16.09 Fair CLR -0.3 -2.6 85% 75.97 0.0
09 01:55 Calm 16.09 Partly Cloudy SCT095 -0.2 -2.4 6.7 -0.6 85% 75.97 0.0
09 01:35 Calm 16.09 Mostly Cloudy BKN095 0.2 -2.9 80% 75.97 0.0
09 01:15 Calm 16.09 Partly Cloudy SCT095 0.6 -2.2 82% 75.95 0.0
09 00:55 Calm 16.09 Fair CLR 1 -2.2 79% 75.95 0.0
09 00:35 Calm 16.09 Mostly Cloudy BKN090 1.2 -2.5 77% 75.95 0.0
09 00:15 Calm 16.09 Overcast OVC090 1.4 -2.5 76% 75.95 0.0
08 23:55 Calm 16.09 Mostly Cloudy BKN090 1.7 -2.5 74% 75.92 0.0
08 23:35 Calm 16.09 Partly Cloudy SCT090 2.3 -2.8 69% 75.92 0.0
08 23:15 Calm 16.09 Fair CLR 2.8 -2.7 67% 75.9 0.0
08 22:55 Calm 16.09 Fair CLR 3.3 -3.1 63% 75.87 0.0
08 22:35 Calm 16.09 Partly Cloudy SCT090 3.8 -3.1 61% 75.9 0.0
08 22:15 Calm 16.09 Mostly Cloudy BKN090 4.6 -3.5 56% 75.87 0.0
08 21:55 Calm 16.09 Overcast OVC090 5.2 -3.1 55% 75.84 0.0
08 21:35 Calm 16.09 Overcast OVC090 5 -4.2 52% 75.84 0.0
08 21:15 Calm 16.09 Mostly Cloudy BKN090 6.1 -5 45% 75.84 0.0
08 20:55 Calm 16.09 Overcast OVC090 6.4 -4.8 45% 75.82 0.0
08 20:35 Calm 16.09 Overcast OVC090 6.1 -4.2 48% 75.79 0.0
08 20:15 Calm 16.09 Overcast OVC090 6.5 -4.3 46% 75.79 0.0
08 19:55 Calm 16.09 Overcast OVC090 6.7 -4 10.1 6.7 47% 75.79 0.0
08 19:35 Calm 16.09 Overcast OVC090 7.2 -4.4 44% 75.77 0.0
08 19:15 Calm 16.09 Overcast OVC090 7.6 -4.7 42% 75.77 0.0
08 18:55 Calm 16.09 Overcast OVC090 7.7 -3.7 45% 75.77 0.0
08 18:35 Calm 16.09 Overcast OVC080 7.7 -3.4 46% 75.74 0.0
08 18:15 W 9 16.09 Overcast OVC080 8.2 -3.1 45% 7 75.74 0.0
08 17:55 W 6 16.09 Overcast SCT060 OVC080 9.2 -3.3 42% 75.74 0.0
08 17:35 Calm 16.09 Overcast SCT070 SCT080 OVC085 9.1 -3.3 42% 75.72 0.0
08 17:15 SW 11 G 26 16.09 Overcast SCT055 SCT080 OVC090 9.3 -3.7 40% 8 75.72 0.0
08 16:55 W 7 G 31 16.09 Overcast BKN055 BKN070 OVC090 9.7 -3.8 39% 9 75.72 0.0
08 16:35 SW 7 G 28 16.09 Overcast SCT055 BKN080 OVC090 9.1 -3.9 40% 8 75.69 0.0
08 16:15 W 11 G 28 16.09 Overcast OVC080 8.5 -3.8 42% 7 75.69 0.0
08 15:55 W 15 16.09 Overcast OVC080 8.2 -4.1 42% 6 75.69 0.0
08 15:15 SW 20 G 35 16.09 Overcast BKN055 OVC080 7.7 -4.4 42% 5 75.72 0.0
08 14:55 SW 15 G 30 16.09 Overcast OVC070 7.6 -4.4 43% 5 75.69 0.0
08 14:35 SW 15 G 28 16.09 Overcast SCT050 BKN070 OVC075 7.7 -3.6 45% 5 75.69 0.0
08 14:15 SW 13 16.09 Overcast SCT050 BKN070 OVC080 8.2 -3.1 45% 6 75.69 0.0
08 13:55 Calm 16.09 Overcast SCT050 OVC060 7.5 -1.9 9.3 2.3 52% 75.69 0.0
08 13:35 W 19 16.09 Overcast BKN050 BKN070 OVC080 7 -2 53% 4 75.69 0.0
08 13:15 Calm 16.09 Overcast SCT047 OVC070 7.7 -3.1 47% 75.67 0.0
08 12:55 W 7 16.09 Overcast BKN045 BKN060 OVC075 8 -1.5 51% 7 75.67 0.0
08 12:35 SW 17 16.09 Overcast SCT041 BKN047 OVC075 9.3 -0.9 49% 7 75.67 0.0
08 12:15 Calm 16.09 Overcast SCT040 SCT047 OVC075 8.2 -0.2 56% 75.69 0.0
08 11:55 W 6 16.09 Overcast SCT037 OVC075 7.1 -0.3 60% 75.69 0.0
08 11:35 SW 13 16.09 Overcast OVC075 7 -0.7 58% 5 75.69 0.0
08 11:15 SW 9 16.09 Overcast SCT035 SCT041 OVC075 7.2 -0.4 59% 6 75.67 0.0
08 10:35 SW 17 G 26 16.09 Overcast OVC075 6.6 -0.7 60% 4 75.67 0.0
08 10:15 Calm 16.09 Overcast SCT065 OVC075 6.2 -0.4 63% 75.69 0.0
08 09:55 Calm 16.09 Overcast SCT055 OVC075 6.1 0.1 66% 75.69 0.0
08 09:35 Calm 16.09 Overcast SCT055 BKN065 OVC075 5.4 0.1 69% 75.69 0.0
08 09:15 Calm 16.09 Overcast SCT065 OVC075 4.9 0.2 72% 75.69 0.0
08 08:55 Calm 16.09 Overcast OVC075 4.7 0 72% 75.67 0.0
08 08:35 Calm 16.09 Overcast SCT060 SCT065 OVC075 3.6 0 78% 75.69 0.0
08 08:15 Calm 16.09 Overcast BKN060 BKN070 OVC075 2.3 0 85% 75.67 0.0
08 07:55 Calm 16.09 Overcast SCT070 OVC080 2.5 0.2 2.8 -1 85% 75.67 0.0
08 07:35 Calm 16.09 Overcast OVC080 2.3 0.1 86% 75.67 0.0
08 07:15 Calm 16.09 Overcast OVC080 1.4 0 91% 75.67 0.0
08 06:55 Calm 16.09 Overcast OVC080 0.9 -0.5 90% 75.64 0.0
08 06:35 Calm 16.09 Mostly Cloudy BKN090 0.6 -0.3 94% 75.64 0.0
08 06:15 Calm 16.09 Fair CLR -0.3 -1.4 92% 75.62 0.0
08 05:55 Calm 16.09 Fair CLR -0.5 -1.8 91% 75.59 0.0
08 05:35 Calm 16.09 Partly Cloudy SCT090 -1 -2.4 90% 75.59 0.0
08 05:15 Calm 16.09 Partly Cloudy SCT090 -0.2 -1.7 90% 75.59 0.0
08 04:55 Calm 16.09 Partly Cloudy SCT080 0.2 -1.6 88% 75.57 0.0
08 04:35 Calm 16.09 Mostly Cloudy BKN080 0.1 -1.6 88% 75.57 0.0
08 04:15 Calm 16.09 Partly Cloudy SCT090 0.5 -1.5 87% 75.57 0.0
08 03:55 Calm 16.09 Partly Cloudy SCT090 1 -1.6 83% 75.57 0.0
08 03:35 Calm 16.09 Mostly Cloudy SCT041 SCT049 BKN090 0.5 -1.3 88% 75.57 0.0
08 03:15 Calm 16.09 Partly Cloudy SCT044 SCT090 0.6 -1 89% 75.57 0.0
08 02:55 Calm 16.09 Overcast BKN044 BKN050 OVC065 2.7 -0.9 77% 75.57 0.0
08 02:35 Calm 16.09 Overcast SCT029 SCT040 OVC050 1.7 -0.8 84% 75.59 0.0
08 02:15 Calm 16.09 Overcast SCT050 SCT065 OVC085 1.7 -1.3 81% 75.59 0.0
08 01:55 Calm 16.09 Overcast SCT060 SCT070 OVC085 1.6 -0.9 7.5 1.5 84% 75.59 0.0
08 01:35 Calm 16.09 Overcast OVC085 1.9 -0.9 82% 75.62 0.0
08 01:15 Calm 16.09 Overcast OVC085 2.3 -1.4 77% 75.62 0.0
08 00:55 Calm 16.09 Overcast OVC085 1.8 -1.6 78% 75.62 0.0
08 00:35 Calm 16.09 Overcast OVC085 1.7 -1.6 79% 75.62 0.0
08 00:15 Calm 16.09 Overcast OVC075 3 -2.6 67% 75.62 0.0
07 23:55 Calm 16.09 Overcast OVC075 2.7 -2.9 67% 75.64 0.0
07 23:35 Calm 16.09 Partly Cloudy SCT075 2.5 -3.2 66% 75.62 0.0
07 23:15 Calm 16.09 Fair CLR 2.3 -3.6 65% 75.62 0.0
07 22:55 Calm 16.09 Fair CLR 3.9 -4 57% 75.64 0.0
07 22:35 Calm 16.09 Fair CLR 4.5 -4.1 54% 75.64 0.0
07 22:15 Calm 16.09 Fair CLR 5.2 -4.6 50% 75.62 0.0
07 21:55 Calm 16.09 Fair CLR 5.2 -4.5 50% 75.62 0.0
07 21:35 Calm 16.09 Partly Cloudy SCT080 5.2 -3.8 53% 75.59 0.0
07 21:15 Calm 16.09 Fair CLR 5.4 -3.4 53% 75.59 0.0
07 20:55 Calm 16.09 Partly Cloudy SCT065 SCT080 6.2 -3.9 49% 75.59 0.0
07 20:35 Calm 16.09 Overcast SCT065 OVC080 6.7 -4.2 46% 75.59 0.0
07 20:15 Calm 16.09 Overcast SCT065 OVC080 7.3 -4.6 43% 75.59 0.0
07 19:55 Calm 16.09 Overcast OVC070 7.5 -4.1 11.5 7.2 44% 75.59 0.0
07 19:35 Calm 16.09 Overcast OVC070 7.2 -3.8 46% 75.57 0.0
07 19:15 Calm 16.09 Partly Cloudy SCT070 SCT080 7.7 -4.8 41% 75.57 0.0
07 18:55 W 11 16.09 Fair CLR 8.4 -5.1 38% 7 75.57 0.0
07 18:35 W 15 G 33 16.09 Partly Cloudy SCT070 9.4 -4.7 37% 7 75.54 0.0
07 18:15 W 20 G 33 16.09 Mostly Cloudy BKN070 9.5 -4.4 38% 7 75.54 0.0
07 17:55 SW 20 G 43 16.09 Overcast SCT070 OVC080 9.5 -4 39% 7 75.54 0.0
07 17:35 W 17 G 35 16.09 Overcast OVC070 10 -3.7 38% 8 75.51 0.0
07 17:15 SW 26 G 43 16.09 Overcast OVC065 10.1 -3.4 39% 75.51 0.0
07 16:55 W 17 G 41 16.09 Mostly Cloudy SCT065 BKN075 10.2 -4.2 36% 75.49 0.0
07 16:35 SW 24 G 43 16.09 Mostly Cloudy SCT075 BKN080 10.8 -3.9 36% 75.49 0.0
07 16:15 SW 19 G 39 16.09 Mostly Cloudy BKN070 10.8 -3.9 36% 75.49 0.0
07 15:55 SW 22 G 33 16.09 Mostly Cloudy BKN070 10.7 -3.8 36% 75.49 0.0
07 15:35 SW 22 G 37 16.09 Mostly Cloudy BKN070 10.4 -4.1 36% 75.49 0.0
07 15:15 SW 9 G 35 16.09 Overcast OVC070 10.8 -3.8 36% 75.49 0.0
07 14:55 SW 20 G 37 16.09 Mostly Cloudy BKN060 10.9 -2.8 39% 75.49 0.0
07 14:35 W 22 G 35 16.09 Mostly Cloudy BKN060 11.1 -2.4 39% 75.49 0.0
07 14:15 SW 24 G 37 16.09 Mostly Cloudy BKN060 11 -1.8 41% 75.49 0.0
07 13:55 SW 17 G 39 16.09 Mostly Cloudy BKN060 9.6 -2.7 10.4 4.7 42% 7 75.49 0.0
07 13:35 SW 19 G 30 16.09 Overcast OVC050 9.7 -1.8 45% 7 75.49 0.0
07 13:15 SW 15 16.09 Overcast BKN050 OVC065 9.5 -0.6 50% 8 75.51 0.0
07 12:55 SW 15 16.09 Mostly Cloudy BKN048 BKN055 9.1 -0.6 51% 7 75.51 0.0
07 12:35 Calm 16.09 Mostly Cloudy SCT048 BKN050 9.3 -0.1 52% 75.54 0.0
Date Time (edt) Wind (kph) Vis. (km) Weather Sky Cond. Air Dwpt Max. Min. Relative Humidity Wind Chill (°C) Heat Index (°C) altimeter (cm) sea level (mb) 1 hr 3 hr 6 hr
6 hour
Temperature (ºC) Pressure Precipitation (cm)